Time;durP1;ratioP1;P1;durP2;ratioP2;P2;SDS_P1;SDS_P2;PMS_P1;PMS_P2;Temp;Humidity;BMP_temperature;BMP_pressure;BME280_temperature;BME280_humidity;BME280_pressure;Samples;Min_cycle;Max_cycle;Signal;HPM_P1;HPM_P2
2022/12/17 13:06:52;;;;;;;78.97;40.75;;;;;;;-0.81;100.00;102565.94;5257979;28;20542;-83
2022/12/17 13:09:26;;;;;;;77.50;38.30;;;;;;;-0.88;100.00;102566.94;5257891;28;20045;-84
2022/12/17 13:12:00;;;;;;;78.00;38.15;;;;;;;-0.94;100.00;102565.28;5255612;28;20035;-83
2022/12/17 13:14:41;;;;;;;78.47;42.03;;;;;;;-1.01;100.00;102564.53;5258491;28;20112;-83
2022/12/17 13:17:15;;;;;;;78.63;41.50;;;;;;;-1.23;100.00;102564.00;5258405;28;20144;-83
2022/12/17 13:20:01;;;;;;;78.20;37.42;;;;;;;-1.37;100.00;102565.97;5256544;28;20025;-83
2022/12/17 13:22:32;;;;;;;86.47;39.45;;;;;;;-1.49;100.00;102568.78;5256476;28;20029;-83
2022/12/17 13:25:17;;;;;;;79.88;39.92;;;;;;;-1.49;100.00;102564.44;5252474;28;20415;-83
2022/12/17 13:27:49;;;;;;;83.82;38.65;;;;;;;-1.49;100.00;102561.81;5257019;28;20145;-82
2022/12/17 13:30:34;;;;;;;79.15;40.40;;;;;;;-1.31;100.00;102554.56;5250865;28;20032;-83
2022/12/17 13:33:31;;;;;;;75.07;37.53;;;;;;;-1.19;100.00;102560.47;5267863;28;20025;-83
2022/12/17 13:36:35;;;;;;;86.85;39.67;;;;;;;-1.30;100.00;102553.66;5254093;28;20021;-83
2022/12/17 13:39:41;;;;;;;80.28;38.97;;;;;;;-1.42;100.00;102549.47;5265652;28;20037;-83
2022/12/17 13:42:26;;;;;;;79.57;37.30;;;;;;;-1.47;100.00;102551.28;5288131;28;20017;-82
2022/12/17 13:44:58;;;;;;;84.47;40.33;;;;;;;-1.50;100.00;102546.13;5287069;28;20049;-82
2022/12/17 13:47:33;;;;;;;82.68;41.85;;;;;;;-1.59;100.00;102554.97;5276128;28;20041;-82
2022/12/17 13:50:37;;;;;;;89.78;39.75;;;;;;;-1.55;100.00;102557.50;5261171;28;20057;-82
2022/12/17 13:53:11;;;;;;;93.63;42.80;;;;;;;-1.61;100.00;102557.59;5210832;28;20184;-82
2022/12/17 13:55:50;;;;;;;85.72;42.80;;;;;;;-1.61;100.00;102554.13;5261250;28;20028;-82
2022/12/17 13:58:27;;;;;;;87.28;39.67;;;;;;;-1.60;100.00;102553.22;5262253;28;20083;-82
2022/12/17 14:01:06;;;;;;;81.18;36.63;;;;;;;-1.61;100.00;102564.59;5261356;28;20458;-82
2022/12/17 14:03:37;;;;;;;81.82;38.53;;;;;;;-1.82;100.00;102557.88;5261525;28;20014;-83
2022/12/17 14:06:10;;;;;;;89.65;42.95;;;;;;;-1.96;100.00;102564.19;5261306;28;20026;-82
2022/12/17 14:08:42;;;;;;;86.85;40.22;;;;;;;-2.02;100.00;102555.53;5261469;28;20025;-83
2022/12/17 14:14:15;;;;;;;86.70;41.15;;;;;;;-2.08;100.00;102553.03;5261752;28;20490;-83
2022/12/17 14:16:46;;;;;;;84.75;36.80;;;;;;;-1.96;100.00;102558.09;5261667;28;20031;-83
2022/12/17 14:19:17;;;;;;;87.55;40.00;;;;;;;-1.89;100.00;102564.97;5260822;28;20029;-83
2022/12/17 14:21:50;;;;;;;85.40;37.15;;;;;;;-1.87;100.00;102567.56;5261648;28;20075;-83
2022/12/17 14:24:26;;;;;;;90.05;39.20;;;;;;;-1.83;100.00;102572.72;5260381;28;20038;-83
2022/12/17 14:26:59;;;;;;;91.05;39.20;;;;;;;-1.84;100.00;102571.00;5260662;28;20164;-82
2022/12/17 14:29:31;;;;;;;93.38;39.88;;;;;;;-1.94;100.00;102574.63;5262236;28;20029;-83
2022/12/17 14:32:22;;;;;;;86.00;38.47;;;;;;;-1.95;100.00;102570.28;5259605;28;20038;-83
2022/12/17 14:34:53;;;;;;;88.03;38.75;;;;;;;-2.11;100.00;102565.22;5261310;28;20418;-83
2022/12/17 14:37:26;;;;;;;90.18;36.70;;;;;;;-2.13;100.00;102580.06;5261519;28;20069;-82
2022/12/17 14:40:03;;;;;;;90.03;40.55;;;;;;;-2.16;100.00;102580.09;5260969;28;20411;-83
2022/12/17 14:42:35;;;;;;;86.85;38.35;;;;;;;-2.24;100.00;102574.13;5260717;28;20458;-83
2022/12/17 14:45:13;;;;;;;86.03;35.28;;;;;;;-2.27;100.00;102584.59;5241915;28;20076;-82
2022/12/17 14:47:59;;;;;;;88.20;37.60;;;;;;;-2.33;100.00;102588.16;5260374;28;20040;-83
2022/12/17 14:50:35;;;;;;;80.18;32.22;;;;;;;-2.52;100.00;102589.25;5260024;28;20030;-83
2022/12/17 14:53:26;;;;;;;88.88;38.15;;;;;;;-2.81;100.00;102585.13;5260673;28;20040;-83
2022/12/17 14:55:58;;;;;;;102.13;39.90;;;;;;;-2.93;100.00;102587.84;5259468;28;20069;-82
2022/12/17 14:58:29;;;;;;;107.45;41.40;;;;;;;-3.05;100.00;102592.31;5261031;28;20037;-83
2022/12/17 15:01:07;;;;;;;102.22;37.45;;;;;;;-3.01;100.00;102590.53;5248931;28;20080;-83
2022/12/17 15:03:42;;;;;;;103.50;37.00;;;;;;;-3.00;100.00;102599.22;5260865;28;20029;-82
2022/12/17 15:06:18;;;;;;;108.10;38.30;;;;;;;-2.98;100.00;102600.09;5260481;28;20386;-83
2022/12/17 15:08:51;;;;;;;91.80;36.58;;;;;;;-2.89;100.00;102605.25;5259989;28;20018;-83
2022/12/17 15:11:23;;;;;;;106.45;40.75;;;;;;;-3.02;100.00;102591.41;5258568;28;20033;-82
2022/12/17 15:13:54;;;;;;;112.00;43.20;;;;;;;-3.01;100.00;102584.47;5258653;28;20473;-83
2022/12/17 15:16:26;;;;;;;105.30;39.13;;;;;;;-3.06;100.00;102598.41;5260244;28;20112;-82
2022/12/17 15:18:57;;;;;;;111.95;38.35;;;;;;;-3.08;100.00;102607.13;5259940;28;20025;-82
2022/12/17 15:21:29;;;;;;;109.70;39.47;;;;;;;-3.12;100.00;102619.34;5258342;28;20036;-82
2022/12/17 15:24:00;;;;;;;107.53;38.00;;;;;;;-3.16;100.00;102625.44;5259152;28;20372;-82
2022/12/17 15:26:32;;;;;;;114.78;41.55;;;;;;;-3.15;100.00;102629.81;5258511;28;20049;-82
2022/12/17 15:29:03;;;;;;;116.85;40.45;;;;;;;-3.14;100.00;102631.53;5260975;28;20026;-82
2022/12/17 15:31:35;;;;;;;109.97;38.00;;;;;;;-3.12;100.00;102634.13;5258959;28;20097;-83
2022/12/17 15:34:06;;;;;;;121.72;44.00;;;;;;;-3.21;100.00;102627.22;5260249;28;20618;-82
2022/12/17 15:36:37;;;;;;;120.18;41.78;;;;;;;-3.23;100.00;102631.59;5260123;28;20033;-82
2022/12/17 15:39:10;;;;;;;127.35;45.55;;;;;;;-3.21;100.00;102635.06;5260256;28;20037;-82
2022/12/17 15:44:31;;;;;;;151.30;48.40;;;;;;;-3.31;100.00;102638.63;5250631;28;20550;-82
2022/12/17 15:47:02;;;;;;;132.88;44.08;;;;;;;-3.28;100.00;102643.81;5222034;28;20044;-82
2022/12/17 15:49:33;;;;;;;133.80;45.00;;;;;;;-3.31;100.00;102641.22;5239889;28;20022;-83
2022/12/17 15:52:05;;;;;;;130.13;43.95;;;;;;;-3.29;100.00;102642.09;5259226;28;20410;-82
2022/12/17 15:54:43;;;;;;;132.70;48.10;;;;;;;-3.32;100.00;102648.19;5259734;28;20032;-83
2022/12/17 15:57:15;;;;;;;126.78;42.65;;;;;;;-3.32;100.00;102650.78;5256844;28;20787;-83
2022/12/17 15:59:46;;;;;;;129.80;43.33;;;;;;;-3.34;100.00;102647.31;5232791;28;20148;-84
2022/12/17 16:02:17;;;;;;;127.25;44.13;;;;;;;-3.31;100.00;102644.69;5255500;28;20104;-83
2022/12/17 16:04:49;;;;;;;121.68;42.72;;;;;;;-3.30;100.00;102656.84;5259429;28;20021;-84
2022/12/17 16:07:20;;;;;;;136.48;43.88;;;;;;;-3.30;100.00;102654.25;5257706;28;20045;-84
2022/12/17 16:09:51;;;;;;;131.50;44.25;;;;;;;-3.25;100.00;102654.22;5257383;28;20031;-83
2022/12/17 16:12:22;;;;;;;134.35;52.40;;;;;;;-3.31;100.00;102647.31;5258597;28;20478;-84
2022/12/17 16:14:54;;;;;;;124.53;43.55;;;;;;;-3.20;100.00;102655.06;5263549;28;20025;-84
2022/12/17 16:17:25;;;;;;;124.38;41.78;;;;;;;-3.27;100.00;102648.16;5268949;28;20026;-83
2022/12/17 16:19:57;;;;;;;147.93;47.00;;;;;;;-3.32;100.00;102650.78;5278913;28;20017;-82
2022/12/17 16:22:28;;;;;;;134.82;46.22;;;;;;;-3.30;100.00;102651.63;5279011;28;20504;-83
2022/12/17 16:25:00;;;;;;;146.23;48.33;;;;;;;-3.38;100.00;102655.16;5277849;28;20029;-83
2022/12/17 16:27:31;;;;;;;138.57;51.47;;;;;;;-3.47;100.00;102656.06;5260290;28;20115;-84
2022/12/17 16:30:04;;;;;;;131.10;46.03;;;;;;;-3.42;100.00;102651.72;5257530;28;20045;-84
2022/12/17 16:32:35;;;;;;;134.35;46.00;;;;;;;-3.45;100.00;102651.75;5240775;28;20097;-83
2022/12/17 16:35:07;;;;;;;131.73;44.50;;;;;;;-3.48;100.00;102654.38;5233331;28;20180;-83
2022/12/17 16:37:38;;;;;;;142.57;49.60;;;;;;;-3.54;100.00;102659.59;5256490;28;20105;-83
2022/12/17 16:40:10;;;;;;;144.52;46.33;;;;;;;-3.52;100.00;102655.25;5236143;28;20076;-83
2022/12/17 16:42:41;;;;;;;134.80;47.35;;;;;;;-3.61;100.00;102650.97;5237363;28;20052;-84
2022/12/17 16:45:13;;;;;;;135.20;46.08;;;;;;;-3.65;100.00;102650.06;5238266;28;20029;-84
2022/12/17 16:47:44;;;;;;;146.82;50.78;;;;;;;-3.59;100.00;102656.13;5255505;28;20083;-84
2022/12/17 16:50:15;;;;;;;148.63;45.30;;;;;;;-3.70;100.00;102662.31;5257272;28;20025;-84
2022/12/17 16:52:47;;;;;;;173.20;52.15;;;;;;;-3.73;100.00;102658.84;5239441;28;20065;-84
2022/12/17 16:55:18;;;;;;;148.50;46.70;;;;;;;-3.69;100.00;102663.16;5257332;28;20032;-83
2022/12/17 16:57:49;;;;;;;158.20;49.58;;;;;;;-3.68;100.00;102667.47;5256757;28;20180;-82
2022/12/17 17:00:21;;;;;;;165.15;49.50;;;;;;;-3.70;100.00;102664.03;5255695;28;22631;-83
2022/12/17 17:02:52;;;;;;;144.85;44.70;;;;;;;-3.55;100.00;102663.09;5257908;28;20094;-85
2022/12/17 17:05:23;;;;;;;146.52;45.75;;;;;;;-3.55;100.00;102657.88;5257710;28;20152;-86
2022/12/17 17:07:55;;;;;;;154.00;49.40;;;;;;;-3.54;100.00;102651.78;5258982;28;20061;-86
2022/12/17 17:10:26;;;;;;;148.70;46.88;;;;;;;-3.52;100.00;102661.34;5244328;28;20029;-87
2022/12/17 17:12:58;;;;;;;144.05;44.50;;;;;;;-3.51;100.00;102652.63;5262599;28;20364;-86
2022/12/17 17:15:32;;;;;;;142.48;45.45;;;;;;;-3.53;100.00;102662.19;5264621;28;20021;-86
2022/12/17 17:18:03;;;;;;;132.88;42.78;;;;;;;-3.61;100.00;102662.25;5263730;28;20022;-86
2022/12/17 17:20:35;;;;;;;134.90;46.30;;;;;;;-3.59;100.00;102674.41;5246332;28;20029;-86
2022/12/17 17:23:06;;;;;;;141.13;46.28;;;;;;;-3.68;100.00;102670.09;5263283;28;20076;-85
2022/12/17 17:25:37;;;;;;;135.73;44.42;;;;;;;-3.76;100.00;102675.34;5246883;28;20443;-85
2022/12/17 17:28:08;;;;;;;116.88;40.30;;;;;;;-3.75;100.00;102676.22;5268482;28;20052;-86
2022/12/17 17:30:40;;;;;;;132.73;43.35;;;;;;;-3.76;100.00;102682.31;5248862;28;20033;-83
2022/12/17 17:33:11;;;;;;;132.95;45.47;;;;;;;-3.76;100.00;102680.56;5278897;28;20502;-82
2022/12/17 17:35:42;;;;;;;135.70;45.30;;;;;;;-3.80;100.00;102689.28;5281810;28;20040;-83
2022/12/17 17:38:14;;;;;;;130.00;41.65;;;;;;;-3.86;100.00;102684.94;5261145;28;20022;-85
2022/12/17 17:40:57;;;;;;;123.20;40.38;;;;;;;-3.80;100.00;102686.69;5276141;28;20029;-87
2022/12/17 17:43:28;;;;;;;122.13;42.70;;;;;;;-3.86;100.00;102684.94;5283850;28;20085;-86
2022/12/17 17:46:18;;;;;;;132.38;41.78;;;;;;;-3.80;100.00;102684.94;5285357;28;20033;-87
2022/12/17 17:48:50;;;;;;;165.73;44.67;;;;;;;-3.84;100.00;102690.16;5284618;28;20101;-87
2022/12/17 17:51:24;;;;;;;144.07;43.50;;;;;;;-3.88;100.00;102689.28;5277156;28;20048;-87
2022/12/17 17:53:56;;;;;;;135.57;43.00;;;;;;;-3.91;100.00;102680.59;5278618;28;20081;-87
2022/12/17 17:56:30;;;;;;;128.32;41.65;;;;;;;-3.91;100.00;102686.72;5273740;28;20134;-85
2022/12/17 17:59:07;;;;;;;126.15;42.70;;;;;;;-3.91;100.00;102678.00;5272464;28;20042;-86
2022/12/17 18:01:43;;;;;;;132.82;43.67;;;;;;;-3.89;100.00;102687.56;5275266;28;20041;-86
2022/12/17 18:04:18;;;;;;;129.07;42.53;;;;;;;-3.92;100.00;102689.31;5276767;28;20018;-85
2022/12/17 18:06:49;;;;;;;123.10;39.97;;;;;;;-3.91;100.00;102689.31;5257005;28;20040;-84
2022/12/17 18:09:20;;;;;;;129.63;44.42;;;;;;;-3.96;100.00;102695.41;5275834;28;20065;-86
2022/12/17 18:11:52;;;;;;;117.82;39.45;;;;;;;-4.04;100.00;102693.69;5272533;28;20027;-85
2022/12/17 18:14:23;;;;;;;131.88;41.47;;;;;;;-4.06;100.00;102686.75;5271278;28;20463;-87
2022/12/17 18:16:54;;;;;;;215.73;43.90;;;;;;;-4.16;100.00;102698.06;5260656;28;20101;-85
2022/12/17 18:19:25;;;;;;;116.43;37.75;;;;;;;-4.06;100.00;102681.53;5261707;28;20025;-85
2022/12/17 18:21:57;;;;;;;133.93;43.97;;;;;;;-4.26;100.00;102689.38;5242577;28;20436;-85
2022/12/17 18:24:28;;;;;;;130.45;42.13;;;;;;;-4.21;100.00;102693.72;5243120;28;20025;-86
2022/12/17 18:26:59;;;;;;;131.70;42.22;;;;;;;-4.24;100.00;102692.88;5258457;28;20335;-85
2022/12/17 18:29:31;;;;;;;139.90;44.03;;;;;;;-4.27;100.00;102688.50;5260410;28;20022;-85
2022/12/17 18:32:02;;;;;;;141.25;42.88;;;;;;;-4.33;100.00;102691.13;5244776;28;20481;-85
2022/12/17 18:34:34;;;;;;;140.32;45.60;;;;;;;-4.35;100.00;102687.63;5256635;28;20092;-84
2022/12/17 18:37:05;;;;;;;143.57;42.55;;;;;;;-4.30;100.00;102687.66;5241203;28;20109;-86
2022/12/17 18:39:37;;;;;;;139.77;46.45;;;;;;;-4.26;100.00;102682.44;5261636;28;20035;-85
2022/12/17 18:44:58;;;;;;;145.82;44.70;;;;;;;-4.21;100.00;102688.50;5261210;28;20112;-87
2022/12/17 18:47:30;;;;;;;144.35;45.00;;;;;;;-4.20;100.00;102691.97;5249358;28;20217;-86
2022/12/17 18:50:01;;;;;;;138.15;46.08;;;;;;;-4.23;100.00;102684.16;5251643;28;20025;-86
2022/12/17 18:52:38;;;;;;;143.38;43.97;;;;;;;-4.25;100.00;102691.97;5252385;28;20445;-86
2022/12/17 18:55:10;;;;;;;140.95;45.13;;;;;;;-4.28;100.00;102697.19;5280675;28;20060;-87
2022/12/17 18:57:44;;;;;;;126.07;41.33;;;;;;;-4.28;100.00;102694.59;5259638;28;20025;-88
2022/12/17 19:00:16;;;;;;;129.80;41.72;;;;;;;-4.27;100.00;102696.31;5255661;28;20045;-84
2022/12/17 19:02:47;;;;;;;119.47;40.20;;;;;;;-4.23;100.00;102697.19;5268474;28;20032;-85
2022/12/17 19:05:19;;;;;;;116.43;40.78;;;;;;;-4.23;100.00;102702.41;5268992;28;20025;-85
2022/12/17 19:07:50;;;;;;;120.85;41.72;;;;;;;-4.22;100.00;102701.53;5261228;28;20037;-85
2022/12/17 19:10:21;;;;;;;131.90;41.97;;;;;;;-4.23;100.00;102697.19;5243967;28;20037;-85
2022/12/17 19:12:53;;;;;;;131.07;43.83;;;;;;;-4.20;100.00;102707.63;5242501;28;20397;-85
2022/12/17 19:15:25;;;;;;;143.65;47.30;;;;;;;-4.19;100.00;102707.63;5240986;28;20045;-86
2022/12/17 19:17:56;;;;;;;127.32;42.08;;;;;;;-4.14;100.00;102717.16;5244471;28;20024;-87
2022/12/17 19:20:28;;;;;;;123.78;41.33;;;;;;;-4.17;100.00;102715.44;5256831;28;20095;-86
2022/12/17 19:22:59;;;;;;;130.52;45.50;;;;;;;-4.16;100.00;102721.50;5244531;28;20022;-85
2022/12/17 19:25:31;;;;;;;131.77;44.38;;;;;;;-4.20;100.00;102718.91;5243088;28;20442;-87
2022/12/17 19:28:02;;;;;;;134.05;43.78;;;;;;;-4.19;100.00;102723.25;5256244;28;20524;-87
2022/12/17 19:30:34;;;;;;;119.00;43.97;;;;;;;-4.27;100.00;102730.22;5261067;28;20112;-85
2022/12/17 19:33:06;;;;;;;115.25;39.00;;;;;;;-4.26;100.00;102728.47;5259709;28;20156;-85
2022/12/17 19:35:37;;;;;;;122.47;44.35;;;;;;;-4.31;100.00;102735.41;5259515;28;20029;-85
2022/12/17 19:38:09;;;;;;;143.68;42.35;;;;;;;-4.35;100.00;102739.75;5256867;28;20072;-85
2022/12/17 19:40:40;;;;;;;148.15;43.10;;;;;;;-4.38;100.00;102726.75;5245748;28;20025;-86
2022/12/17 19:43:12;;;;;;;129.82;42.22;;;;;;;-4.35;100.00;102731.06;5276042;28;20034;-85
2022/12/17 19:45:44;;;;;;;122.20;42.63;;;;;;;-4.33;100.00;102727.63;5258358;28;20023;-86
2022/12/17 19:48:18;;;;;;;128.48;44.38;;;;;;;-4.37;100.00;102721.50;5260741;28;20115;-86
2022/12/17 19:54:13;;;;;;;115.55;39.85;;;;;;;-4.37;100.00;102716.28;5275969;28;20041;-87
2022/12/17 20:00:30;;;;;;;115.22;42.40;;;;;;;-4.44;100.00;102735.41;5256380;28;20033;-87
2022/12/17 20:03:29;;;;;;;119.05;39.15;;;;;;;-4.43;100.00;102733.69;5254459;28;20111;-86
2022/12/17 20:09:54;;;;;;;130.23;46.58;;;;;;;-4.53;100.00;102713.72;5256800;28;20124;-86
2022/12/17 20:16:13;;;;;;;129.82;41.83;;;;;;;-4.43;100.00;102752.78;5259502;28;20425;-86
2022/12/17 20:19:30;;;;;;;;;;;;;;;;;;;;;
2022/12/17 20:22:31;;;;;;;;;;;;;;;;;;;;;
2022/12/17 20:25:15;;;;;;;122.05;41.58;;;;;;;-4.49;100.00;102741.50;5257867;28;41386;-86
2022/12/17 20:30:39;;;;;;;122.55;42.92;;;;;;;-4.42;100.00;102744.13;5256933;28;20037;-86
2022/12/17 20:33:20;;;;;;;119.15;40.55;;;;;;;-4.40;100.00;102738.88;5274488;28;20109;-88
2022/12/17 20:36:38;;;;;;;116.32;41.08;;;;;;;-4.33;100.00;102758.00;5256946;28;20072;-87
2022/12/17 20:39:41;;;;;;;119.60;42.07;;;;;;;-4.42;100.00;102738.91;5256577;28;20026;-87
2022/12/17 20:42:28;;;;;;;119.43;39.38;;;;;;;-4.34;100.00;102736.28;5265644;28;20577;-87
2022/12/17 20:45:02;;;;;;;110.88;40.65;;;;;;;-4.38;100.00;102739.78;5273324;28;20120;-87
2022/12/17 20:47:37;;;;;;;103.13;41.28;;;;;;;-4.47;100.00;102725.00;5258009;28;20057;-87
2022/12/17 20:50:09;;;;;;;112.50;39.47;;;;;;;-4.46;100.00;102742.34;5254336;28;20058;-87
2022/12/17 20:52:48;;;;;;;103.90;41.03;;;;;;;-4.49;100.00;102742.34;5258393;28;20055;-87
2022/12/17 20:55:23;;;;;;;99.43;37.05;;;;;;;-4.51;100.00;102736.28;5253358;28;20037;-86
2022/12/17 20:57:54;;;;;;;103.88;37.92;;;;;;;-4.54;100.00;102738.00;5272663;28;20830;-87
2022/12/17 21:00:25;;;;;;;113.32;41.78;;;;;;;-4.56;100.00;102736.28;5261019;28;20108;-88
2022/12/17 21:02:57;;;;;;;104.72;38.10;;;;;;;-4.52;100.00;102739.78;5264141;28;20040;-86
2022/12/17 21:05:28;;;;;;;108.00;40.20;;;;;;;-4.51;100.00;102744.09;5263290;28;20073;-86
2022/12/17 21:08:00;;;;;;;101.28;37.17;;;;;;;-4.52;100.00;102749.31;5260902;28;20039;-87
2022/12/17 21:10:31;;;;;;;96.18;38.97;;;;;;;-4.57;100.00;102744.97;5260580;28;20134;-87
2022/12/17 21:15:52;;;;;;;96.80;34.72;;;;;;;-4.62;100.00;102738.03;5274608;28;20397;-87
2022/12/17 21:18:25;;;;;;;99.82;35.88;;;;;;;-4.66;100.00;102739.75;5267422;28;20080;-87
2022/12/17 21:21:05;;;;;;;98.40;38.35;;;;;;;-4.66;100.00;102742.34;5264113;28;20075;-87
2022/12/17 21:23:38;;;;;;;93.78;37.15;;;;;;;-4.65;100.00;102746.69;5264224;28;20116;-87
2022/12/17 21:26:14;;;;;;;98.97;36.30;;;;;;;-4.73;100.00;102740.63;5273450;28;20363;-87
2022/12/17 21:28:47;;;;;;;95.65;36.63;;;;;;;-4.75;100.00;102744.97;5263873;28;20029;-87
2022/12/17 21:31:20;;;;;;;97.70;35.67;;;;;;;-4.78;100.00;102747.56;5265426;28;20028;-88
2022/12/17 21:33:54;;;;;;;100.57;37.03;;;;;;;-4.70;100.00;102760.56;5269015;28;20021;-87
2022/12/17 21:36:27;;;;;;;118.15;41.17;;;;;;;-4.73;100.00;102750.16;5267649;28;20037;-87
2022/12/17 21:38:59;;;;;;;100.80;40.75;;;;;;;-4.75;100.00;102750.16;5263701;28;20037;-88
2022/12/17 21:41:33;;;;;;;102.22;38.33;;;;;;;-4.75;100.00;102748.44;5244113;28;20034;-87
2022/12/17 21:44:06;;;;;;;97.00;37.38;;;;;;;-4.80;100.00;102759.72;5262857;28;20029;-87
2022/12/17 21:46:38;;;;;;;95.03;35.60;;;;;;;-4.81;100.00;102756.22;5258772;28;20529;-87
2022/12/17 21:49:09;;;;;;;95.45;38.58;;;;;;;-4.85;100.00;102753.63;5241467;28;20104;-87
2022/12/17 21:51:40;;;;;;;93.85;36.53;;;;;;;-4.87;100.00;102757.94;5259506;28;20080;-87
2022/12/17 21:54:12;;;;;;;105.43;40.33;;;;;;;-4.92;100.00;102760.53;5261500;28;20048;-88
2022/12/17 21:56:43;;;;;;;101.55;37.30;;;;;;;-4.96;100.00;102762.28;5260676;28;20021;-87
2022/12/17 21:59:15;;;;;;;97.22;38.70;;;;;;;-4.99;100.00;102767.47;5245293;28;20437;-87
2022/12/17 22:01:47;;;;;;;95.68;37.53;;;;;;;-5.03;100.00;102770.94;5259745;28;20060;-87
2022/12/17 22:04:18;;;;;;;99.78;39.17;;;;;;;-5.04;100.00;102776.13;5259766;28;20478;-87
2022/12/17 22:06:50;;;;;;;97.57;37.33;;;;;;;-5.07;100.00;102765.69;5260733;28;20042;-87
2022/12/17 22:09:21;;;;;;;94.93;35.55;;;;;;;-5.11;100.00;102771.75;5241270;28;20037;-87
2022/12/17 22:14:01;;;;;;;93.28;38.38;;;;;;;-5.16;100.00;102771.75;5253305;28;20041;-87
2022/12/17 22:14:45;;;;;;;91.78;35.53;;;;;;;-5.19;100.00;102787.31;5258635;28;20091;-87
2022/12/17 22:17:17;;;;;;;89.93;35.60;;;;;;;-5.25;100.00;102782.97;5261500;28;20030;-87
2022/12/17 22:19:48;;;;;;;85.47;36.15;;;;;;;-5.30;100.00;102779.47;5261198;28;20038;-87
2022/12/17 22:22:20;;;;;;;85.72;34.00;;;;;;;-5.34;100.00;102795.97;5244029;28;20025;-86
2022/12/17 22:24:55;;;;;;;77.70;33.22;;;;;;;-5.41;100.00;102784.66;5241019;28;20439;-86
2022/12/17 22:27:26;;;;;;;90.00;33.53;;;;;;;-5.43;100.00;102798.53;5255342;28;20068;-87
2022/12/17 22:33:04;;;;;;;94.78;36.03;;;;;;;-5.51;100.00;102801.06;5262253;28;20029;-86
2022/12/17 22:35:38;;;;;;;92.10;35.05;;;;;;;-5.55;100.00;102791.50;5244154;28;20029;-88
2022/12/17 22:38:09;;;;;;;84.70;34.45;;;;;;;-5.66;100.00;102785.34;5245072;28;20033;-87
2022/12/17 22:40:41;;;;;;;91.70;32.88;;;;;;;-5.68;100.00;102787.09;5260335;28;20025;-87
2022/12/17 22:43:31;;;;;;;86.90;35.20;;;;;;;-5.78;100.00;102780.97;5257680;28;20053;-86
2022/12/17 22:46:04;;;;;;;80.72;33.65;;;;;;;-5.81;100.00;102786.16;5253584;28;20465;-86
2022/12/17 22:48:35;;;;;;;88.88;35.60;;;;;;;-5.89;100.00;102773.97;5241673;28;20475;-87
2022/12/17 22:51:09;;;;;;;85.88;34.10;;;;;;;-5.92;100.00;102767.88;5259922;28;20079;-86
2022/12/17 22:53:40;;;;;;;86.00;34.10;;;;;;;-5.98;100.00;102773.94;5262060;28;20083;-87
2022/12/17 22:56:11;;;;;;;87.70;35.45;;;;;;;-6.00;100.00;102772.19;5243679;28;20025;-87
2022/12/17 22:58:43;;;;;;;87.07;34.30;;;;;;;-6.03;100.00;102775.66;5240605;28;20018;-88
2022/12/17 23:01:15;;;;;;;81.72;34.58;;;;;;;-6.03;100.00;102780.84;5263418;28;20084;-87
2022/12/17 23:03:46;;;;;;;87.55;35.88;;;;;;;-6.10;100.00;102779.03;5262407;28;20021;-87
2022/12/17 23:06:18;;;;;;;96.43;34.78;;;;;;;-6.11;100.00;102795.50;5243866;28;20053;-87
2022/12/17 23:08:50;;;;;;;85.60;33.72;;;;;;;-6.15;100.00;102789.41;5262661;28;20033;-87
2022/12/17 23:11:24;;;;;;;81.57;34.58;;;;;;;-6.18;100.00;102788.50;5271340;28;20018;-87
2022/12/17 23:13:56;;;;;;;89.03;36.67;;;;;;;-6.22;100.00;102769.44;5254475;28;20021;-86
2022/12/17 23:16:27;;;;;;;84.72;36.63;;;;;;;-6.24;100.00;102760.78;5256165;28;20048;-87
2022/12/17 23:19:01;;;;;;;86.30;35.90;;;;;;;-6.32;100.00;102744.25;5245727;28;20072;-87
2022/12/17 23:21:33;;;;;;;87.75;35.20;;;;;;;-6.30;100.00;102751.19;5238315;28;20106;-87
2022/12/17 23:24:05;;;;;;;84.50;35.38;;;;;;;-6.33;100.00;102751.19;5242041;28;20057;-87
2022/12/17 23:26:38;;;;;;;86.55;35.85;;;;;;;-6.38;100.00;102751.97;5260704;28;20042;-87
2022/12/17 23:29:14;;;;;;;89.18;37.63;;;;;;;-6.40;100.00;102759.75;5240974;28;20032;-86
2022/12/17 23:31:46;;;;;;;89.73;36.73;;;;;;;-6.43;100.00;102762.34;5240318;28;20117;-86
2022/12/17 23:34:17;;;;;;;85.00;35.75;;;;;;;-6.53;100.00;102757.91;5247173;28;20766;-85
2022/12/17 23:36:48;;;;;;;84.05;36.00;;;;;;;-6.47;100.00;102758.84;5243136;28;20386;-86
2022/12/17 23:39:20;;;;;;;84.60;33.80;;;;;;;-6.56;100.00;102756.16;5244171;28;20077;-86
2022/12/17 23:41:54;;;;;;;80.43;34.38;;;;;;;-6.66;100.00;102762.13;5244774;28;20434;-86
2022/12/17 23:44:25;;;;;;;82.88;34.53;;;;;;;-6.73;100.00;102766.41;5261918;28;20476;-86
2022/12/17 23:46:57;;;;;;;86.53;34.38;;;;;;;-6.80;100.00;102766.28;5241633;28;20094;-86
2022/12/17 23:49:28;;;;;;;83.30;33.03;;;;;;;-6.84;100.00;102760.22;5257265;28;20029;-86
2022/12/17 23:52:00;;;;;;;78.47;33.40;;;;;;;-6.87;100.00;102766.25;5259867;28;20040;-86
2022/12/17 23:54:31;;;;;;;85.22;33.85;;;;;;;-6.87;100.00;102779.22;5247620;28;20496;-86
2022/12/17 23:57:03;;;;;;;81.45;32.58;;;;;;;-6.99;100.00;102773.91;5241100;28;20037;-86
2022/12/17 23:59:35;;;;;;;78.78;30.92;;;;;;;-7.06;100.00;102778.16;5242844;28;20052;-87
